Terminal Aerodrome Forecast
Issued by NWS

Current Version | Previous Version | Graphics & Text | Print | Product List | Glossary On
Versions: 1 2 3 4 5 6 7 8 9 10 11 12 13 14 15 16 17 18 19 20 21 22 23 24
000
FTUS41 KPBZ 010300 AAA
TAFHLG
TAF AMD
KHLG 010304Z 0103/0124 09006KT P6SM SCT200
     FM010500 10004KT P6SM OVC080
     FM010800 12006KT 1 1/2SM -SN OVC015
     FM011300 18006KT 1SM -SN OVC006
     FM011700 21005KT 3SM -RASN OVC006=

USA.gov is the U.S. government's official web portal to all federal, state and local government web resources and services.